Time;durP1;ratioP1;P1;durP2;ratioP2;P2;SDS_P1;SDS_P2;PMS_P1;PMS_P2;Temp;Humidity;BMP_temperature;BMP_pressure;BME280_temperature;BME280_humidity;BME280_pressure;Samples;Min_cycle;Max_cycle;Signal;HPM_P1;HPM_P2
2023/07/06 00:00:59;;;;;;;6.00;3.80;;;24.90;41.00;;;;;;4993029;28;20474;-47
2023/07/06 00:03:25;;;;;;;5.33;3.43;;;24.70;41.70;;;;;;4992521;28;20470;-48
2023/07/06 00:05:51;;;;;;;3.90;2.87;;;24.50;42.10;;;;;;4986745;28;20907;-51
2023/07/06 00:08:16;;;;;;;4.40;3.90;;;24.50;42.10;;;;;;4993677;28;20281;-47
2023/07/06 00:15:36;;;;;;;4.10;3.30;;;24.80;42.00;;;;;;4994172;28;20281;-48
2023/07/06 00:18:03;;;;;;;3.30;2.80;;;24.80;41.80;;;;;;4996067;28;20191;-48
2023/07/06 00:20:33;;;;;;;3.43;3.13;;;24.80;41.70;;;;;;4990308;28;20500;-48
2023/07/06 00:23:01;;;;;;;4.70;3.40;;;24.80;41.80;;;;;;4991257;28;20488;-51
2023/07/06 00:25:27;;;;;;;6.63;3.40;;;24.80;41.90;;;;;;4992493;28;20819;-46
2023/07/06 00:27:58;;;;;;;5.40;3.80;;;24.80;41.90;;;;;;4993189;28;20481;-49
2023/07/06 00:30:41;;;;;;;3.90;3.47;;;24.80;41.90;;;;;;4990712;28;20198;-51
2023/07/06 00:33:08;;;;;;;4.83;3.57;;;24.70;42.00;;;;;;4991232;28;20449;-48
2023/07/06 00:35:34;;;;;;;4.47;3.50;;;24.70;42.00;;;;;;4991007;28;20452;-46
2023/07/06 00:38:00;;;;;;;2.80;2.37;;;24.70;41.90;;;;;;4990815;28;20445;-48
2023/07/06 00:40:32;;;;;;;4.40;4.00;;;24.70;41.90;;;;;;4995512;28;20497;-49
2023/07/06 00:42:58;;;;;;;8.73;4.87;;;24.70;42.40;;;;;;4988441;28;20841;-50
2023/07/06 00:45:25;;;;;;;5.90;4.07;;;24.40;42.70;;;;;;4985583;28;20430;-52
2023/07/06 00:47:56;;;;;;;8.43;4.00;;;24.50;42.80;;;;;;4994532;28;20317;-47
2023/07/06 00:50:24;;;;;;;4.23;3.83;;;24.50;42.60;;;;;;4992844;28;20949;-49
2023/07/06 00:52:58;;;;;;;4.53;4.00;;;24.60;42.50;;;;;;4990056;28;20442;-48
2023/07/06 00:55:29;;;;;;;5.27;3.97;;;24.60;42.50;;;;;;4992365;28;20448;-49
2023/07/06 00:58:03;;;;;;;4.70;4.07;;;24.60;42.70;;;;;;4987055;28;20450;-53
2023/07/06 01:00:28;;;;;;;4.53;3.47;;;24.60;42.70;;;;;;4988668;28;20497;-49
2023/07/06 01:03:00;;;;;;;3.50;3.20;;;24.60;42.40;;;;;;5003787;28;20451;-49
2023/07/06 01:05:26;;;;;;;3.00;2.57;;;24.60;42.60;;;;;;4988856;28;20250;-48
2023/07/06 01:07:54;;;;;;;3.80;3.20;;;24.60;42.40;;;;;;4989648;28;20875;-50
2023/07/06 01:10:20;;;;;;;3.37;2.60;;;24.60;42.40;;;;;;4982134;28;20443;-49
2023/07/06 01:12:46;;;;;;;3.80;2.80;;;24.60;42.40;;;;;;4992413;28;20450;-48
2023/07/06 01:15:12;;;;;;;3.80;2.90;;;24.60;42.40;;;;;;4987301;28;20233;-48
2023/07/06 01:17:53;;;;;;;3.57;2.93;;;24.70;42.50;;;;;;4988813;28;20497;-46
2023/07/06 01:23:52;;;;;;;5.00;3.33;;;24.70;42.50;;;;;;4993378;28;20481;-49
2023/07/06 01:26:36;;;;;;;4.57;2.90;;;24.60;42.40;;;;;;4990863;28;20476;-47
2023/07/06 01:29:35;;;;;;;3.90;3.30;;;24.50;42.50;;;;;;4989753;28;20481;-50
2023/07/06 01:32:14;;;;;;;3.30;2.90;;;24.40;42.50;;;;;;4991348;28;20785;-50
2023/07/06 01:34:47;;;;;;;4.83;3.40;;;24.40;43.10;;;;;;4991382;28;20917;-48
2023/07/06 01:37:26;;;;;;;3.57;3.27;;;24.40;42.70;;;;;;4984530;28;20453;-48
2023/07/06 01:39:53;;;;;;;3.27;2.87;;;24.50;42.50;;;;;;4990656;28;20492;-48
2023/07/06 01:42:27;;;;;;;3.27;2.97;;;24.50;42.50;;;;;;4988712;28;20577;-47
2023/07/06 01:45:00;;;;;;;5.27;3.03;;;24.50;42.50;;;;;;4985961;28;20445;-48
2023/07/06 01:47:29;;;;;;;3.40;3.10;;;24.50;42.30;;;;;;4991288;28;20459;-48
2023/07/06 01:49:56;;;;;;;3.87;3.57;;;24.50;42.60;;;;;;4987024;28;20525;-48
2023/07/06 01:52:46;;;;;;;4.83;3.30;;;24.50;42.30;;;;;;4992084;28;20449;-52
2023/07/06 01:55:24;;;;;;;3.73;3.23;;;24.50;42.30;;;;;;4980231;28;20922;-48
2023/07/06 01:58:08;;;;;;;3.40;3.10;;;24.40;42.40;;;;;;4979919;28;20453;-47
2023/07/06 02:00:41;;;;;;;2.60;2.40;;;24.30;42.70;;;;;;4988281;28;20517;-47
2023/07/06 02:03:08;;;;;;;2.87;2.50;;;24.30;42.70;;;;;;4988043;28;20446;-47
2023/07/06 02:05:36;;;;;;;4.20;2.67;;;24.10;42.80;;;;;;4990028;28;20450;-48
2023/07/06 02:08:06;;;;;;;4.13;2.67;;;24.10;42.80;;;;;;4988507;28;20937;-47
2023/07/06 02:10:31;;;;;;;5.37;2.57;;;24.00;42.90;;;;;;4977739;28;20478;-51
2023/07/06 02:12:57;;;;;;;3.83;2.93;;;24.00;43.30;;;;;;4983641;28;20894;-48
2023/07/06 02:15:23;;;;;;;3.23;2.97;;;24.00;43.30;;;;;;4984251;28;20198;-49
2023/07/06 02:17:55;;;;;;;3.10;2.40;;;24.10;43.30;;;;;;4983925;28;20205;-48
2023/07/06 02:20:20;;;;;;;3.77;2.70;;;24.10;43.20;;;;;;4985428;28;20235;-47
2023/07/06 02:22:46;;;;;;;3.50;2.60;;;24.20;43.10;;;;;;4992912;28;21064;-48
2023/07/06 02:25:13;;;;;;;4.23;3.00;;;24.10;43.10;;;;;;4980809;28;20198;-47
2023/07/06 02:27:39;;;;;;;8.13;3.03;;;24.10;43.90;;;;;;4986961;28;20195;-49
2023/07/06 02:30:05;;;;;;;3.13;2.60;;;24.00;43.80;;;;;;4990691;28;20439;-49
2023/07/06 02:32:32;;;;;;;3.50;2.50;;;24.00;43.70;;;;;;4986426;28;20217;-51
2023/07/06 02:34:58;;;;;;;3.90;2.83;;;24.10;43.70;;;;;;4998156;28;20458;-47
2023/07/06 02:37:24;;;;;;;3.97;2.87;;;24.20;43.60;;;;;;4993086;28;20454;-48
2023/07/06 02:39:50;;;;;;;3.67;2.63;;;24.30;43.70;;;;;;4989281;28;20651;-49
2023/07/06 02:42:17;;;;;;;5.70;2.50;;;24.40;43.60;;;;;;4989873;28;21205;-47
2023/07/06 02:44:43;;;;;;;4.13;2.60;;;24.40;44.00;;;;;;5005383;28;20447;-47
2023/07/06 02:47:09;;;;;;;3.03;2.70;;;24.40;43.40;;;;;;4990603;28;20446;-47
2023/07/06 02:49:35;;;;;;;4.10;2.67;;;24.40;43.30;;;;;;4990647;28;20661;-47
2023/07/06 02:52:01;;;;;;;2.70;2.50;;;24.40;43.20;;;;;;4989516;28;20449;-49
2023/07/06 02:54:27;;;;;;;3.47;3.17;;;24.50;43.30;;;;;;4987896;28;20811;-49
2023/07/06 02:56:53;;;;;;;3.80;3.40;;;24.40;42.60;;;;;;4990716;28;20202;-47
2023/07/06 02:59:19;;;;;;;3.70;3.17;;;24.20;42.60;;;;;;4990159;28;20879;-49
2023/07/06 03:01:45;;;;;;;3.37;3.07;;;24.00;43.10;;;;;;4991965;28;20933;-48
2023/07/06 03:04:11;;;;;;;6.83;2.93;;;23.60;43.80;;;;;;4993736;28;20507;-49
2023/07/06 03:06:38;;;;;;;3.30;2.80;;;23.30;44.30;;;;;;4990272;28;20206;-46
2023/07/06 03:09:04;;;;;;;3.70;3.40;;;23.00;45.00;;;;;;4989972;28;20449;-48
2023/07/06 03:11:34;;;;;;;4.37;3.30;;;22.70;45.80;;;;;;4990086;28;20450;-47
2023/07/06 03:14:00;;;;;;;3.63;3.20;;;22.50;46.10;;;;;;4989048;28;20956;-48
2023/07/06 03:16:38;;;;;;;3.73;3.40;;;22.20;46.50;;;;;;4990372;28;20573;-47
2023/07/06 03:19:04;;;;;;;6.43;3.40;;;22.00;47.00;;;;;;4994376;28;20510;-51
2023/07/06 03:21:30;;;;;;;6.73;4.30;;;21.90;47.40;;;;;;4992539;28;20445;-46
2023/07/06 03:23:55;;;;;;;4.13;3.57;;;21.70;47.80;;;;;;4988753;28;20275;-48
2023/07/06 03:26:22;;;;;;;6.47;3.60;;;;;;;;;;4989603;28;20199;-46
2023/07/06 03:28:49;;;;;;;5.40;3.80;;;21.20;48.50;;;;;;4987846;28;20246;-47
2023/07/06 03:31:14;;;;;;;6.50;3.70;;;20.90;49.90;;;;;;4988442;28;20446;-49
2023/07/06 03:33:41;;;;;;;3.37;3.03;;;20.40;50.70;;;;;;4990468;28;21510;-52
2023/07/06 03:36:07;;;;;;;7.53;2.90;;;19.60;53.20;;;;;;4990083;28;20207;-49
2023/07/06 03:38:35;;;;;;;4.03;3.03;;;19.40;53.60;;;;;;4990141;28;20509;-49
2023/07/06 03:41:04;;;;;;;6.20;3.33;;;19.60;53.40;;;;;;4990580;28;20489;-48
2023/07/06 03:43:30;;;;;;;2.77;2.43;;;19.80;53.00;;;;;;4994773;28;20876;-48
2023/07/06 03:45:56;;;;;;;3.03;2.60;;;19.80;52.90;;;;;;4990871;28;20449;-48
2023/07/06 03:48:22;;;;;;;6.00;3.77;;;19.90;52.70;;;;;;4997900;28;20528;-48
2023/07/06 03:50:52;;;;;;;5.57;3.20;;;19.70;52.90;;;;;;5000340;28;20528;-48
2023/07/06 03:53:18;;;;;;;3.53;3.20;;;19.60;53.10;;;;;;4990736;28;20195;-47
2023/07/06 03:55:44;;;;;;;5.03;3.20;;;19.70;53.20;;;;;;4997172;28;20994;-49
2023/07/06 03:58:10;;;;;;;4.03;3.63;;;19.70;52.90;;;;;;4990061;28;20434;-47
2023/07/06 04:00:36;;;;;;;3.13;2.83;;;19.80;52.80;;;;;;4994270;28;20963;-47
2023/07/06 04:03:06;;;;;;;3.93;3.13;;;19.70;53.00;;;;;;4990333;28;20528;-47
2023/07/06 04:05:36;;;;;;;5.43;3.20;;;19.50;53.50;;;;;;4987461;28;20453;-49
2023/07/06 04:08:09;;;;;;;5.87;2.90;;;19.10;55.10;;;;;;4991434;28;20453;-54
2023/07/06 04:10:37;;;;;;;3.60;3.30;;;19.30;56.20;;;;;;4987724;28;20483;-49
2023/07/06 04:13:03;;;;;;;4.03;3.10;;;19.70;54.70;;;;;;5003783;28;20902;-47
2023/07/06 04:15:30;;;;;;;4.73;2.90;;;20.00;53.30;;;;;;4983395;28;20454;-47
2023/07/06 04:17:56;;;;;;;3.43;3.13;;;20.30;52.40;;;;;;4989260;28;20507;-47
2023/07/06 04:20:24;;;;;;;3.37;3.10;;;20.30;51.90;;;;;;4991472;28;20489;-53
2023/07/06 04:22:54;;;;;;;4.27;3.77;;;20.30;51.70;;;;;;4994009;28;20225;-52
2023/07/06 04:25:21;;;;;;;2.63;2.43;;;20.40;51.50;;;;;;4987064;28;20450;-51
2023/07/06 04:27:49;;;;;;;5.20;3.07;;;20.40;51.30;;;;;;5001198;28;20499;-49
2023/07/06 04:30:16;;;;;;;3.20;2.53;;;20.50;51.00;;;;;;4993888;28;20440;-51
2023/07/06 04:32:48;;;;;;;4.23;3.40;;;20.80;50.70;;;;;;4991500;28;20529;-47
2023/07/06 04:35:16;;;;;;;3.47;3.17;;;20.80;50.60;;;;;;4985589;28;20475;-48
2023/07/06 04:37:44;;;;;;;3.33;2.70;;;20.20;51.50;;;;;;4988092;28;20799;-50
2023/07/06 04:40:13;;;;;;;3.77;3.33;;;20.00;52.10;;;;;;4987708;28;20504;-50
2023/07/06 04:42:40;;;;;;;6.07;3.40;;;20.00;52.20;;;;;;4988867;28;20453;-47
2023/07/06 04:45:09;;;;;;;3.90;3.10;;;20.00;52.10;;;;;;4989854;28;20457;-49
2023/07/06 04:47:35;;;;;;;4.60;3.50;;;19.40;53.70;;;;;;4989720;28;20442;-48
2023/07/06 04:50:02;;;;;;;5.00;3.67;;;19.80;53.30;;;;;;4991141;28;20476;-49
2023/07/06 04:52:28;;;;;;;4.70;3.60;;;20.10;52.30;;;;;;4986469;28;20454;-52
2023/07/06 04:54:53;;;;;;;7.00;3.80;;;20.30;51.90;;;;;;4986625;28;20512;-51
2023/07/06 04:57:19;;;;;;;5.07;3.97;;;20.70;51.30;;;;;;4986523;28;20195;-50
2023/07/06 04:59:45;;;;;;;5.00;3.97;;;20.20;52.10;;;;;;4987856;28;20218;-52
2023/07/06 05:02:10;;;;;;;4.03;3.63;;;20.00;52.40;;;;;;4989779;28;20536;-50
2023/07/06 05:04:42;;;;;;;4.03;3.50;;;19.70;53.10;;;;;;4985903;28;20502;-49
2023/07/06 05:07:08;;;;;;;5.17;3.33;;;19.80;53.30;;;;;;4981799;28;20269;-53
2023/07/06 05:09:35;;;;;;;6.00;3.67;;;20.00;52.90;;;;;;4990802;28;20449;-47
2023/07/06 05:12:00;;;;;;;6.07;3.20;;;20.20;52.40;;;;;;4991859;28;20434;-50
2023/07/06 05:14:26;;;;;;;5.20;3.37;;;20.20;52.40;;;;;;4991789;28;20897;-49
2023/07/06 05:16:51;;;;;;;4.00;3.70;;;20.20;52.50;;;;;;4992516;28;20239;-50
2023/07/06 05:19:17;;;;;;;3.77;3.30;;;19.80;53.30;;;;;;5003203;28;20296;-49
2023/07/06 05:21:42;;;;;;;5.90;3.40;;;19.40;54.20;;;;;;5011694;28;20197;-49
2023/07/06 05:24:08;;;;;;;4.47;3.60;;;19.40;54.70;;;;;;5007635;28;20207;-50
2023/07/06 05:26:34;;;;;;;5.07;3.07;;;19.60;54.40;;;;;;4990527;28;20214;-47
2023/07/06 05:28:59;;;;;;;3.40;3.10;;;19.80;53.60;;;;;;4991710;28;20195;-50
2023/07/06 05:31:26;;;;;;;3.27;2.83;;;20.20;53.00;;;;;;4991639;28;20202;-50
2023/07/06 05:33:52;;;;;;;3.53;3.20;;;20.30;52.30;;;;;;4992167;28;20206;-53
2023/07/06 05:36:17;;;;;;;5.00;3.10;;;20.30;51.90;;;;;;4992048;28;20572;-50
2023/07/06 05:38:43;;;;;;;3.77;3.40;;;20.30;52.20;;;;;;4992234;28;20198;-49
2023/07/06 05:41:09;;;;;;;3.27;2.97;;;20.40;52.40;;;;;;4990956;28;20222;-48
2023/07/06 05:43:34;;;;;;;4.10;2.73;;;20.30;52.50;;;;;;4991966;28;20194;-51
2023/07/06 05:46:00;;;;;;;4.97;3.00;;;20.30;53.00;;;;;;4991541;28;20218;-49
2023/07/06 05:48:25;;;;;;;3.30;2.97;;;20.30;52.70;;;;;;4991692;28;20869;-49
2023/07/06 05:50:51;;;;;;;3.10;2.60;;;20.50;52.60;;;;;;4991698;28;20209;-48
2023/07/06 05:53:16;;;;;;;3.17;2.80;;;20.40;52.20;;;;;;4989895;28;20194;-48
2023/07/06 05:55:43;;;;;;;2.80;2.57;;;20.20;52.40;;;;;;4991477;28;20193;-48
2023/07/06 05:58:10;;;;;;;5.50;3.30;;;20.10;52.40;;;;;;4991630;28;20285;-49
2023/07/06 06:00:39;;;;;;;2.77;2.50;;;20.50;52.10;;;;;;4991279;28;20489;-49
2023/07/06 06:03:05;;;;;;;3.60;2.83;;;20.80;51.50;;;;;;4991109;28;20433;-52
2023/07/06 06:05:31;;;;;;;3.60;2.67;;;21.10;50.60;;;;;;4996288;28;20920;-48
2023/07/06 06:07:58;;;;;;;3.50;3.20;;;21.30;50.20;;;;;;4991628;28;20430;-50
2023/07/06 06:10:24;;;;;;;3.20;2.90;;;21.50;50.20;;;;;;4991153;28;20425;-48
2023/07/06 06:12:49;;;;;;;5.40;3.27;;;21.70;49.80;;;;;;4991409;28;20497;-48
2023/07/06 06:15:15;;;;;;;2.80;2.60;;;21.90;49.30;;;;;;4990883;28;20665;-49
2023/07/06 06:17:43;;;;;;;3.43;3.03;;;22.10;48.90;;;;;;4996907;28;20190;-48
2023/07/06 06:20:08;;;;;;;3.30;2.97;;;22.20;48.30;;;;;;5002741;28;20233;-53
2023/07/06 06:22:34;;;;;;;4.43;3.20;;;22.40;48.20;;;;;;5009953;28;20432;-50
2023/07/06 06:25:01;;;;;;;3.00;2.60;;;22.50;47.60;;;;;;4999144;28;20210;-49
2023/07/06 06:27:29;;;;;;;4.97;2.80;;;22.30;47.50;;;;;;4991338;28;20944;-50
2023/07/06 06:29:55;;;;;;;4.33;3.30;;;22.30;47.10;;;;;;4990617;28;20532;-51
2023/07/06 06:32:22;;;;;;;4.43;3.00;;;22.60;46.80;;;;;;4991178;28;20473;-48
2023/07/06 06:34:47;;;;;;;3.90;3.13;;;22.90;45.50;;;;;;4990999;28;20430;-48
2023/07/06 06:37:15;;;;;;;3.53;2.50;;;23.10;44.90;;;;;;4991123;28;20418;-48
2023/07/06 06:39:41;;;;;;;3.33;2.47;;;23.30;44.90;;;;;;4990597;28;20234;-48
2023/07/06 06:42:07;;;;;;;5.30;3.50;;;23.60;44.70;;;;;;4990585;28;20434;-50
2023/07/06 06:44:34;;;;;;;3.50;2.87;;;23.70;44.20;;;;;;4990612;28;20570;-48
2023/07/06 06:47:01;;;;;;;3.40;3.10;;;23.90;44.20;;;;;;4991203;28;20437;-48
2023/07/06 06:49:28;;;;;;;5.33;2.83;;;24.10;43.60;;;;;;4988850;28;20430;-49
2023/07/06 06:51:54;;;;;;;3.60;2.90;;;24.20;43.50;;;;;;4990719;28;20437;-49
2023/07/06 06:54:19;;;;;;;4.13;2.57;;;24.30;43.50;;;;;;4990667;28;20430;-48
2023/07/06 06:56:45;;;;;;;6.00;2.90;;;24.50;43.40;;;;;;4991132;28;20202;-48
2023/07/06 06:59:12;;;;;;;3.17;2.47;;;24.70;42.50;;;;;;4990377;28;20233;-49
2023/07/06 07:01:38;;;;;;;3.63;2.60;;;24.80;42.60;;;;;;4990537;28;20282;-49
2023/07/06 07:04:04;;;;;;;3.37;2.40;;;25.00;41.40;;;;;;4995696;28;20429;-51
2023/07/06 07:06:30;;;;;;;6.37;2.47;;;25.10;40.70;;;;;;4990929;28;20426;-51
2023/07/06 07:08:57;;;;;;;2.83;2.20;;;25.30;40.30;;;;;;4990165;28;20237;-50
2023/07/06 07:11:23;;;;;;;3.40;2.40;;;25.40;39.80;;;;;;4990525;28;20864;-49
2023/07/06 07:13:50;;;;;;;4.33;2.73;;;25.60;39.30;;;;;;4990827;28;20454;-48
2023/07/06 07:16:16;;;;;;;6.33;2.20;;;25.60;38.90;;;;;;4990658;28;20947;-48
2023/07/06 07:18:43;;;;;;;6.33;3.03;;;25.60;39.50;;;;;;5001411;28;20473;-48
2023/07/06 07:21:10;;;;;;;5.03;3.00;;;25.70;38.90;;;;;;5012919;28;20492;-48
2023/07/06 07:23:46;;;;;;;9.67;3.20;;;25.80;38.60;;;;;;5014400;28;20478;-49
2023/07/06 07:26:14;;;;;;;4.00;2.50;;;26.00;38.30;;;;;;4984056;28;20429;-50
2023/07/06 07:28:40;;;;;;;4.23;2.37;;;25.80;38.50;;;;;;4994511;28;20933;-49
2023/07/06 07:31:07;;;;;;;4.63;2.30;;;25.80;38.40;;;;;;4993619;28;20867;-50
2023/07/06 07:33:34;;;;;;;6.30;2.63;;;25.90;39.00;;;;;;4994494;28;20874;-51
2023/07/06 07:36:03;;;;;;;3.20;2.50;;;26.20;38.50;;;;;;4994056;28;20429;-48
2023/07/06 07:38:29;;;;;;;3.40;2.17;;;26.40;37.30;;;;;;4994262;28;20433;-49
2023/07/06 07:40:57;;;;;;;2.77;2.23;;;26.50;37.40;;;;;;4993256;28;20492;-48
2023/07/06 07:43:32;;;;;;;2.60;2.40;;;26.70;36.90;;;;;;4992693;28;20437;-50
2023/07/06 07:46:01;;;;;;;2.80;2.13;;;26.90;36.40;;;;;;4993843;28;20429;-49
2023/07/06 07:48:27;;;;;;;2.97;1.90;;;27.00;36.10;;;;;;4994032;28;20772;-52
2023/07/06 07:50:58;;;;;;;2.20;2.00;;;27.20;35.90;;;;;;4993393;28;20430;-51
2023/07/06 07:53:25;;;;;;;2.30;2.10;;;27.40;35.30;;;;;;4993765;28;20445;-51
2023/07/06 07:55:53;;;;;;;2.30;2.00;;;27.50;34.60;;;;;;4993546;28;20440;-51
2023/07/06 07:58:19;;;;;;;2.37;1.70;;;27.60;34.30;;;;;;4994268;28;20777;-49
2023/07/06 08:00:51;;;;;;;2.47;2.10;;;27.70;33.90;;;;;;4992857;28;20485;-48
2023/07/06 08:03:17;;;;;;;2.80;2.47;;;27.80;34.10;;;;;;4994281;28;20630;-51
2023/07/06 08:05:43;;;;;;;3.40;2.37;;;27.60;33.70;;;;;;4988374;28;20440;-48
2023/07/06 08:08:10;;;;;;;5.83;2.60;;;27.80;34.30;;;;;;4993807;28;20206;-49
2023/07/06 08:10:39;;;;;;;2.97;2.67;;;27.90;33.90;;;;;;4991543;28;20444;-51
2023/07/06 08:13:06;;;;;;;5.20;2.40;;;28.00;33.90;;;;;;4993689;28;20799;-51
2023/07/06 08:15:32;;;;;;;3.00;2.53;;;28.10;33.60;;;;;;4993008;28;20474;-49
2023/07/06 08:18:00;;;;;;;2.93;1.90;;;28.30;33.30;;;;;;4998937;28;20436;-49
2023/07/06 08:20:28;;;;;;;3.20;1.93;;;28.40;32.70;;;;;;5007845;28;20636;-50
2023/07/06 08:22:57;;;;;;;4.03;2.07;;;28.50;33.30;;;;;;5012725;28;20523;-51
2023/07/06 08:25:23;;;;;;;2.10;2.00;;;28.60;32.70;;;;;;4998075;28;20438;-51
2023/07/06 08:27:48;;;;;;;2.40;2.13;;;28.70;31.80;;;;;;4993656;28;21209;-52
2023/07/06 08:30:14;;;;;;;2.23;2.03;;;28.80;31.40;;;;;;4992843;28;20429;-51
2023/07/06 08:32:40;;;;;;;5.10;2.00;;;28.70;30.60;;;;;;4993026;28;20205;-49
2023/07/06 08:35:05;;;;;;;5.50;2.13;;;28.80;30.50;;;;;;4992740;28;20199;-53
2023/07/06 08:37:31;;;;;;;2.10;1.90;;;28.80;30.20;;;;;;4991535;28;20194;-49
2023/07/06 08:39:57;;;;;;;2.97;2.30;;;28.90;31.00;;;;;;4992412;28;20318;-54
2023/07/06 08:42:22;;;;;;;2.33;2.10;;;29.10;31.00;;;;;;4992868;28;20202;-52
2023/07/06 08:44:56;;;;;;;3.03;2.10;;;29.10;31.00;;;;;;4992523;28;20190;-52
2023/07/06 08:47:25;;;;;;;3.60;2.53;;;29.30;30.90;;;;;;4993372;28;20303;-53
2023/07/06 08:49:51;;;;;;;2.53;2.33;;;29.40;30.80;;;;;;4992787;28;20452;-50
2023/07/06 08:52:19;;;;;;;5.40;2.50;;;29.30;30.40;;;;;;4992858;28;20847;-51
2023/07/06 08:54:50;;;;;;;7.33;2.53;;;29.10;30.80;;;;;;4992247;28;20417;-54
2023/07/06 08:57:21;;;;;;;4.00;1.97;;;29.30;31.30;;;;;;4993122;28;20469;-51
2023/07/06 08:59:49;;;;;;;2.47;1.90;;;29.30;30.90;;;;;;4992432;28;20891;-50
2023/07/06 09:02:20;;;;;;;2.80;2.27;;;29.30;30.60;;;;;;4992601;28;20434;-53
2023/07/06 09:04:47;;;;;;;3.50;2.77;;;29.30;30.80;;;;;;4996288;28;20544;-50
2023/07/06 09:07:16;;;;;;;2.33;2.13;;;29.10;30.30;;;;;;4992887;28;20418;-51
2023/07/06 09:09:43;;;;;;;2.47;2.27;;;29.50;31.00;;;;;;4991869;28;20446;-53
2023/07/06 09:12:18;;;;;;;5.20;2.37;;;29.80;30.20;;;;;;4992389;28;20465;-51
2023/07/06 09:14:48;;;;;;;4.73;2.30;;;30.20;30.00;;;;;;4991745;28;20425;-54
2023/07/06 09:17:18;;;;;;;2.93;2.27;;;30.50;30.00;;;;;;4994562;28;20917;-53
2023/07/06 09:19:44;;;;;;;3.10;2.53;;;30.80;29.20;;;;;;5003839;28;20488;-53
2023/07/06 09:22:10;;;;;;;2.80;2.60;;;31.10;29.10;;;;;;5011398;28;20421;-55
2023/07/06 09:24:36;;;;;;;2.87;2.57;;;31.20;29.00;;;;;;5003328;28;20437;-55
2023/07/06 09:27:09;;;;;;;2.73;2.47;;;31.30;28.40;;;;;;4992149;28;20206;-53
2023/07/06 09:29:37;;;;;;;2.50;2.10;;;31.40;28.20;;;;;;4991516;28;20918;-54
2023/07/06 09:32:11;;;;;;;2.93;2.30;;;31.60;28.80;;;;;;4990029;28;20434;-55
2023/07/06 09:34:41;;;;;;;2.60;2.40;;;31.90;28.80;;;;;;4991729;28;20422;-55
2023/07/06 09:37:14;;;;;;;3.30;2.53;;;32.00;27.50;;;;;;4992155;28;20473;-54
2023/07/06 09:39:41;;;;;;;3.73;2.10;;;32.10;28.10;;;;;;4991097;28;20489;-54
2023/07/06 09:42:14;;;;;;;4.17;2.57;;;32.30;27.70;;;;;;4991476;28;20437;-56
2023/07/06 09:44:41;;;;;;;2.37;2.20;;;32.40;27.30;;;;;;4991351;28;20769;-53
2023/07/06 09:47:11;;;;;;;3.97;2.40;;;32.50;26.80;;;;;;4991710;28;20441;-54
2023/07/06 09:49:47;;;;;;;3.37;2.60;;;32.40;26.60;;;;;;4991171;28;20476;-55
2023/07/06 09:52:15;;;;;;;5.40;2.73;;;32.50;26.50;;;;;;4991122;28;20797;-55
2023/07/06 09:54:50;;;;;;;4.43;2.30;;;32.50;27.00;;;;;;4991135;28;20440;-53
2023/07/06 09:57:16;;;;;;;2.63;2.43;;;32.60;26.50;;;;;;4990584;28;20436;-55
2023/07/06 09:59:48;;;;;;;2.87;2.67;;;32.60;25.40;;;;;;4990590;28;20493;-55
2023/07/06 10:02:41;;;;;;;3.17;2.30;;;32.50;25.30;;;;;;4991054;28;20430;-52
2023/07/06 10:05:24;;;;;;;5.50;2.70;;;32.30;25.20;;;;;;4996747;28;20442;-53
2023/07/06 10:08:05;;;;;;;5.70;2.63;;;32.00;25.10;;;;;;4991584;28;20516;-53
2023/07/06 10:10:42;;;;;;;3.23;2.33;;;31.70;25.80;;;;;;4990516;28;20465;-55
2023/07/06 10:13:38;;;;;;;5.53;2.90;;;31.70;26.00;;;;;;4991487;28;20430;-53
2023/07/06 10:16:18;;;;;;;4.47;2.57;;;31.80;26.10;;;;;;4990483;28;20621;-54
2023/07/06 10:18:52;;;;;;;2.70;2.27;;;31.90;26.70;;;;;;4998315;28;20444;-54
2023/07/06 10:21:27;;;;;;;3.53;2.40;;;31.90;27.50;;;;;;5010066;28;20904;-55
2023/07/06 10:24:05;;;;;;;2.80;2.37;;;32.20;27.60;;;;;;5008344;28;20420;-55
2023/07/06 10:26:38;;;;;;;3.63;2.47;;;32.40;28.30;;;;;;4989649;28;20440;-54
2023/07/06 10:29:16;;;;;;;2.60;2.40;;;32.80;27.30;;;;;;4990540;28;20436;-55
2023/07/06 10:31:55;;;;;;;2.97;2.67;;;33.10;26.50;;;;;;4990727;28;20434;-55
2023/07/06 10:34:38;;;;;;;3.03;2.70;;;33.20;25.70;;;;;;4990697;28;20465;-54
2023/07/06 10:37:05;;;;;;;2.43;2.23;;;33.30;25.90;;;;;;4990965;28;20425;-55
2023/07/06 10:39:31;;;;;;;3.60;2.33;;;33.10;25.00;;;;;;4990316;28;20572;-55
2023/07/06 10:42:01;;;;;;;2.57;2.33;;;33.10;24.90;;;;;;4990919;28;20526;-55
2023/07/06 10:44:43;;;;;;;3.07;2.40;;;33.10;25.00;;;;;;4990497;28;20198;-54
2023/07/06 10:47:39;;;;;;;3.43;2.63;;;33.20;25.30;;;;;;4990871;28;20529;-52
2023/07/06 10:50:07;;;;;;;2.93;2.40;;;32.60;24.90;;;;;;4990515;28;20816;-55
2023/07/06 10:52:39;;;;;;;2.87;2.50;;;32.30;26.10;;;;;;4992958;28;20472;-54
2023/07/06 10:55:12;;;;;;;2.80;2.60;;;32.40;25.90;;;;;;4994343;28;21017;-53
2023/07/06 10:57:48;;;;;;;2.47;2.20;;;32.60;25.80;;;;;;4995347;28;20437;-55
2023/07/06 11:00:16;;;;;;;2.43;2.23;;;32.80;25.20;;;;;;4994208;28;20499;-56
2023/07/06 11:02:43;;;;;;;3.73;2.80;;;32.90;26.30;;;;;;4994551;28;20458;-56
2023/07/06 11:05:28;;;;;;;2.60;2.40;;;33.10;25.00;;;;;;5001115;28;20903;-54
2023/07/06 11:07:57;;;;;;;2.93;2.73;;;33.20;24.70;;;;;;4994983;28;20442;-55
2023/07/06 11:10:36;;;;;;;2.73;2.40;;;33.10;25.10;;;;;;4993948;28;20789;-55
2023/07/06 11:13:02;;;;;;;3.70;2.73;;;33.30;25.50;;;;;;4994668;28;20441;-53
2023/07/06 11:15:43;;;;;;;4.53;3.03;;;33.50;25.50;;;;;;4993926;28;20433;-55
2023/07/06 11:18:28;;;;;;;2.67;2.40;;;33.70;25.70;;;;;;5000234;28;20197;-55
2023/07/06 11:21:20;;;;;;;3.20;2.90;;;33.90;25.30;;;;;;5011275;28;20480;-56
2023/07/06 11:24:08;;;;;;;3.33;3.13;;;34.10;24.90;;;;;;5011703;28;20461;-56
2023/07/06 11:26:50;;;;;;;2.60;2.40;;;34.40;24.30;;;;;;4994502;28;20941;-55
2023/07/06 11:29:20;;;;;;;2.43;2.23;;;34.20;23.70;;;;;;4993804;28;20444;-55
2023/07/06 11:31:55;;;;;;;2.60;2.40;;;34.20;25.10;;;;;;4994122;28;20920;-56
2023/07/06 11:34:59;;;;;;;3.03;2.70;;;34.30;25.50;;;;;;4993904;28;20536;-56
2023/07/06 11:37:29;;;;;;;8.53;2.83;;;34.40;25.00;;;;;;4994222;28;20465;-56
2023/07/06 11:40:07;;;;;;;2.40;2.17;;;34.50;25.20;;;;;;4993333;28;20490;-56
2023/07/06 11:42:42;;;;;;;2.87;2.67;;;34.60;24.90;;;;;;4994023;28;20460;-56
2023/07/06 11:45:38;;;;;;;6.07;2.97;;;34.80;24.80;;;;;;4993372;28;20970;-56
2023/07/06 11:48:06;;;;;;;2.40;2.20;;;34.60;24.70;;;;;;4992458;28;20528;-55
2023/07/06 11:50:38;;;;;;;3.40;2.67;;;34.70;24.50;;;;;;4993035;28;20434;-56
2023/07/06 11:53:17;;;;;;;3.70;3.40;;;34.70;24.60;;;;;;4993887;28;20441;-56
2023/07/06 11:55:54;;;;;;;3.40;2.60;;;34.90;24.00;;;;;;4993422;28;20426;-56
2023/07/06 11:58:43;;;;;;;2.77;2.57;;;34.90;24.60;;;;;;4993864;28;20446;-56
2023/07/06 12:01:20;;;;;;;4.23;2.60;;;34.90;23.90;;;;;;4992074;28;20489;-57
2023/07/06 12:03:47;;;;;;;3.57;3.27;;;35.00;23.20;;;;;;4997032;28;20448;-58
2023/07/06 12:06:17;;;;;;;2.83;2.43;;;35.10;23.70;;;;;;4994625;28;20469;-55
2023/07/06 12:08:44;;;;;;;4.20;3.00;;;35.20;24.00;;;;;;4993538;28;20481;-56
2023/07/06 12:11:18;;;;;;;4.30;2.90;;;35.20;23.50;;;;;;4992465;28;20532;-55
2023/07/06 12:13:47;;;;;;;3.13;2.47;;;35.30;22.60;;;;;;4992009;28;20425;-56
2023/07/06 12:16:18;;;;;;;3.20;2.80;;;35.50;22.60;;;;;;4992676;28;20500;-56
2023/07/06 12:18:45;;;;;;;3.23;2.70;;;35.60;22.50;;;;;;5000084;28;20524;-58
2023/07/06 12:21:22;;;;;;;5.23;2.90;;;35.50;22.30;;;;;;5012234;28;21240;-56
2023/07/06 12:23:48;;;;;;;3.50;2.67;;;34.80;22.90;;;;;;5011624;28;20447;-56
2023/07/06 12:26:14;;;;;;;3.70;2.77;;;34.80;23.20;;;;;;4992957;28;20429;-56
2023/07/06 12:28:44;;;;;;;5.60;2.90;;;35.10;23.00;;;;;;4993265;28;20194;-56
2023/07/06 12:31:10;;;;;;;2.50;2.30;;;35.10;22.40;;;;;;4992756;28;20533;-57
2023/07/06 12:33:36;;;;;;;3.30;3.00;;;35.30;22.50;;;;;;4993152;28;20437;-57
2023/07/06 12:36:05;;;;;;;5.70;2.60;;;35.20;22.00;;;;;;4993099;28;20426;-57
2023/07/06 12:38:34;;;;;;;3.67;3.17;;;35.50;22.30;;;;;;4992997;28;20234;-57
2023/07/06 12:41:15;;;;;;;5.33;2.90;;;35.70;22.10;;;;;;4990588;28;20489;-57
2023/07/06 12:43:41;;;;;;;4.70;2.47;;;35.80;22.30;;;;;;4992955;28;21298;-57
2023/07/06 12:46:09;;;;;;;2.83;2.53;;;35.80;22.10;;;;;;4992738;28;20461;-56
2023/07/06 12:48:34;;;;;;;4.20;2.70;;;35.60;22.70;;;;;;4992913;28;20450;-56
2023/07/06 12:51:09;;;;;;;3.20;2.83;;;35.50;23.10;;;;;;4991886;28;20787;-56
2023/07/06 12:53:35;;;;;;;2.93;2.67;;;35.60;22.90;;;;;;4992906;28;20198;-58
2023/07/06 12:56:08;;;;;;;3.67;2.67;;;35.60;22.80;;;;;;4992243;28;20430;-56
2023/07/06 12:58:36;;;;;;;7.10;2.97;;;35.60;22.70;;;;;;4992852;28;20281;-55
2023/07/06 13:01:04;;;;;;;4.57;2.70;;;35.60;22.50;;;;;;4991778;28;20500;-57
2023/07/06 13:03:31;;;;;;;3.50;2.93;;;35.70;22.80;;;;;;4994261;28;20434;-56
2023/07/06 13:05:57;;;;;;;3.30;3.00;;;35.80;22.30;;;;;;4995853;28;20452;-57
2023/07/06 13:08:24;;;;;;;3.20;2.77;;;35.90;22.20;;;;;;4991103;28;20426;-56